Time;durP1;ratioP1;P1;durP2;ratioP2;P2;SDS_P1;SDS_P2;PMS_P1;PMS_P2;Temp;Humidity;BMP_temperature;BMP_pressure;BME280_temperature;BME280_humidity;BME280_pressure;Samples;Min_cycle;Max_cycle;Signal;HPM_P1;HPM_P2
2023/11/22 00:02:15;;;;;;;;;;;;;;;6.41;100.00;102746.59;5059785;28;20304;-40
2023/11/22 00:04:40;;;;;;;;;;;;;;;6.37;100.00;102748.63;5059086;28;19917;-40
2023/11/22 00:07:06;;;;;;;;;;;;;;;6.37;100.00;102753.97;5054348;28;19947;-39
2023/11/22 00:09:32;;;;;;;;;;;;;;;6.36;100.00;102746.03;5052033;28;19913;-39
2023/11/22 00:11:59;;;;;;;;;;;;;;;6.37;100.00;102745.94;5053534;28;19916;-40
2023/11/22 00:14:25;;;;;;;;;;;;;;;6.36;100.00;102752.25;5051448;28;19928;-41
2023/11/22 00:16:51;;;;;;;;;;;;;;;6.35;100.00;102761.25;5033382;28;20345;-40
2023/11/22 00:19:18;;;;;;;;;;;;;;;6.35;100.00;102763.91;5032832;28;19913;-41
2023/11/22 00:21:43;;;;;;;;;;;;;;;6.37;100.00;102770.03;5033145;28;20343;-40
2023/11/22 00:24:08;;;;;;;;;;;;;;;6.41;100.00;102772.47;5037260;28;19917;-40
2023/11/22 00:26:33;;;;;;;;;;;;;;;6.42;100.00;102776.84;5053610;28;19916;-41
2023/11/22 00:28:59;;;;;;;;;;;;;;;6.44;100.00;102778.44;5055272;28;19920;-41
2023/11/22 00:31:24;;;;;;;;;;;;;;;6.44;100.00;102781.13;5057201;28;19913;-41
2023/11/22 00:33:49;;;;;;;;;;;;;;;6.42;100.00;102777.69;5055299;28;19913;-41
2023/11/22 00:36:16;;;;;;;;;;;;;;;6.43;100.00;102786.59;5055447;28;19916;-41
2023/11/22 00:38:42;;;;;;;;;;;;;;;6.53;100.00;102791.19;5053842;28;20004;-39
2023/11/22 00:41:07;;;;;;;;;;;;;;;6.50;100.00;102785.19;5053964;28;19946;-41
2023/11/22 00:43:33;;;;;;;;;;;;;;;6.38;100.00;102779.75;5054923;28;19912;-38
2023/11/22 00:45:58;;;;;;;;;;;;;;;6.35;100.00;102782.63;5054080;28;19976;-39
2023/11/22 00:48:23;;;;;;;;;;;;;;;6.38;100.00;102800.28;5053583;28;19917;-41
2023/11/22 00:50:48;;;;;;;;;;;;;;;6.44;100.00;102796.34;5054179;28;19912;-40
2023/11/22 00:53:14;;;;;;;;;;;;;;;6.44;100.00;102797.19;5053945;28;19912;-41
2023/11/22 00:55:40;;;;;;;;;;;;;;;6.38;100.00;102795.78;5052207;28;19935;-39
2023/11/22 00:58:05;;;;;;;;;;;;;;;6.43;100.00;102805.31;5053728;28;19959;-41
2023/11/22 01:00:30;;;;;;;;;;;;;;;6.43;100.00;102816.03;5054959;28;19987;-41
2023/11/22 01:02:56;;;;;;;;;;;;;;;6.35;100.00;102809.38;5055976;28;19962;-41
2023/11/22 01:05:22;;;;;;;;;;;;;;;6.32;100.00;102814.09;5055575;28;20301;-41
2023/11/22 01:07:47;;;;;;;;;;;;;;;6.33;100.00;102815.78;5054896;28;19920;-41
2023/11/22 01:10:13;;;;;;;;;;;;;;;6.29;100.00;102820.50;5059003;28;19920;-40
2023/11/22 01:12:38;;;;;;;;;;;;;;;6.32;100.00;102814.94;5034690;28;19960;-40
2023/11/22 01:15:05;;;;;;;;;;;;;;;6.27;100.00;102827.78;5033743;28;19913;-40
2023/11/22 01:17:30;;;;;;;;;;;;;;;6.29;100.00;102833.00;5033324;28;19913;-39
2023/11/22 01:19:56;;;;;;;;;;;;;;;6.29;100.00;102836.56;5032842;28;19967;-40
2023/11/22 01:22:21;;;;;;;;;;;;;;;6.25;100.00;102835.03;5033623;28;19928;-40
2023/11/22 01:24:47;;;;;;;;;;;;;;;6.23;100.00;102836.94;5034104;28;19917;-40
2023/11/22 01:27:12;;;;;;;;;;;;;;;6.23;100.00;102838.78;5034248;28;19927;-40
2023/11/22 01:29:37;;;;;;;;;;;;;;;6.23;100.00;102839.63;5033970;28;19913;-41
2023/11/22 01:32:03;;;;;;;;;;;;;;;6.15;100.00;102850.84;5037159;28;20015;-40
2023/11/22 01:34:29;;;;;;;;;;;;;;;6.13;100.00;102847.44;5038010;28;19952;-40
2023/11/22 01:36:54;;;;;;;;;;;;;;;6.09;100.00;102839.72;5040617;28;20295;-40
2023/11/22 01:39:20;;;;;;;;;;;;;;;6.05;100.00;102836.38;5041625;28;19913;-41
2023/11/22 01:41:46;;;;;;;;;;;;;;;6.03;100.00;102837.44;5042096;28;20287;-40
2023/11/22 01:44:12;;;;;;;;;;;;;;;5.99;100.00;102838.63;5042206;28;19917;-40
2023/11/22 01:46:37;;;;;;;;;;;;;;;5.94;100.00;102847.78;5039233;28;20421;-42
2023/11/22 01:49:02;;;;;;;;;;;;;;;5.90;100.00;102856.97;5038107;28;20457;-40
2023/11/22 01:51:27;;;;;;;;;;;;;;;5.86;100.00;102860.78;5049555;28;19913;-40
2023/11/22 01:53:53;;;;;;;;;;;;;;;5.84;100.00;102868.03;5042907;28;19935;-41
2023/11/22 01:56:19;;;;;;;;;;;;;;;5.83;100.00;102862.81;5051138;28;20343;-39
2023/11/22 01:58:44;;;;;;;;;;;;;;;5.80;100.00;102861.19;5041304;28;19917;-39
2023/11/22 02:01:10;;;;;;;;;;;;;;;5.80;100.00;102853.19;5045599;28;19920;-39
2023/11/22 02:03:35;;;;;;;;;;;;;;;5.79;100.00;102854.13;5061415;28;19916;-39
2023/11/22 02:06:00;;;;;;;;;;;;;;;5.79;100.00;102854.13;5060985;28;19916;-40
2023/11/22 02:08:28;;;;;;;;;;;;;;;5.78;100.00;102852.41;5060829;28;19913;-41
2023/11/22 02:11:00;;;;;;;;;;;;;;;5.71;100.00;102845.75;5049755;28;19917;-38
2023/11/22 02:13:26;;;;;;;;;;;;;;;5.68;100.00;102852.16;5045512;28;20019;-42
2023/11/22 02:15:52;;;;;;;;;;;;;;;5.64;100.00;102839.13;5036641;28;19917;-40
2023/11/22 02:18:17;;;;;;;;;;;;;;;5.61;100.00;102841.97;5046807;28;19913;-40
2023/11/22 02:20:42;;;;;;;;;;;;;;;5.59;100.00;102835.91;5038724;28;19979;-39
2023/11/22 02:23:09;;;;;;;;;;;;;;;5.60;100.00;102834.91;5055706;28;19917;-40
2023/11/22 02:25:34;;;;;;;;;;;;;;;5.58;100.00;102831.50;5054794;28;19912;-41
2023/11/22 02:27:59;;;;;;;;;;;;;;;5.55;100.00;102835.22;5038610;28;19924;-40
2023/11/22 02:30:25;;;;;;;;;;;;;;;5.54;100.00;102833.50;5041189;28;19920;-40
2023/11/22 02:32:50;;;;;;;;;;;;;;;5.49;100.00;102839.16;5044151;28;19924;-40
2023/11/22 02:35:17;;;;;;;;;;;;;;;5.50;100.00;102830.19;5044570;28;20283;-40
2023/11/22 02:37:45;;;;;;;;;;;;;;;5.54;100.00;102836.19;5044754;28;19924;-41
2023/11/22 02:40:13;;;;;;;;;;;;;;;5.57;100.00;102829.78;5055263;28;20347;-39
2023/11/22 02:42:38;;;;;;;;;;;;;;;5.58;100.00;102834.16;5034660;28;20420;-41
2023/11/22 02:45:05;;;;;;;;;;;;;;;5.58;100.00;102843.06;5055396;28;20007;-40
2023/11/22 02:47:30;;;;;;;;;;;;;;;5.59;100.00;102835.91;5053351;28;20012;-41
2023/11/22 02:49:55;;;;;;;;;;;;;;;5.58;100.00;102843.06;5042996;28;20018;-40
2023/11/22 02:52:21;;;;;;;;;;;;;;;5.54;100.00;102838.84;5042366;28;19917;-40
2023/11/22 02:54:47;;;;;;;;;;;;;;;5.46;100.00;102842.03;5050047;28;20354;-40
2023/11/22 02:57:12;;;;;;;;;;;;;;;5.38;100.00;102844.34;5038378;28;19924;-39
2023/11/22 02:59:41;;;;;;;;;;;;;;;5.28;100.00;102837.88;5041359;28;19924;-40
2023/11/22 03:02:07;;;;;;;;;;;;;;;5.25;100.00;102833.59;5034680;28;19917;-39
2023/11/22 03:04:32;;;;;;;;;;;;;;;5.21;100.00;102832.09;5045870;28;19923;-40
2023/11/22 03:06:57;;;;;;;;;;;;;;;5.22;100.00;102830.25;5039907;28;19916;-40
2023/11/22 03:09:23;;;;;;;;;;;;;;;5.22;100.00;102833.78;5036688;28;20342;-41
2023/11/22 03:11:48;;;;;;;;;;;;;;;5.19;100.00;102830.47;5049191;28;20370;-39
2023/11/22 03:14:13;;;;;;;;;;;;;;;5.20;100.00;102834.84;5040157;28;19917;-41
2023/11/22 03:16:39;;;;;;;;;;;;;;;5.19;100.00;102850.00;5040997;28;19924;-39
2023/11/22 03:19:04;;;;;;;;;;;;;;;5.21;100.00;102850.78;5040630;28;19909;-40
2023/11/22 03:21:29;;;;;;;;;;;;;;;5.19;100.00;102854.50;5047681;28;19921;-40
2023/11/22 03:23:54;;;;;;;;;;;;;;;5.15;100.00;102863.63;5040668;28;19928;-40
2023/11/22 03:26:20;;;;;;;;;;;;;;;5.14;100.00;102861.94;5036988;28;19964;-41
2023/11/22 03:28:45;;;;;;;;;;;;;;;5.15;100.00;102876.97;5049088;28;19916;-40
2023/11/22 03:31:10;;;;;;;;;;;;;;;5.16;100.00;102886.69;5037625;28;19924;-40
2023/11/22 03:33:35;;;;;;;;;;;;;;;5.20;100.00;102888.22;5047498;28;19920;-39
2023/11/22 03:36:02;;;;;;;;;;;;;;;5.22;100.00;102897.84;5035132;28;19920;-41
2023/11/22 03:38:27;;;;;;;;;;;;;;;5.24;100.00;102911.97;5034581;28;19924;-41
2023/11/22 03:40:53;;;;;;;;;;;;;;;5.24;100.00;102927.13;5041462;28;19946;-40
2023/11/22 03:43:18;;;;;;;;;;;;;;;5.24;100.00;102929.81;5048884;28;19952;-40
2023/11/22 03:45:43;;;;;;;;;;;;;;;5.23;100.00;102920.06;5053818;28;19966;-40
2023/11/22 03:48:09;;;;;;;;;;;;;;;5.26;100.00;102930.53;5039887;28;19921;-41
2023/11/22 03:50:34;;;;;;;;;;;;;;;5.27;100.00;102930.47;5031328;28;19964;-40
2023/11/22 03:52:59;;;;;;;;;;;;;;;5.27;100.00;102924.28;5014736;28;19913;-40
2023/11/22 03:55:24;;;;;;;;;;;;;;;5.27;100.00;102929.59;5015642;28;20379;-40
2023/11/22 03:57:50;;;;;;;;;;;;;;;5.26;100.00;102935.88;5034328;28;20360;-40
2023/11/22 04:00:16;;;;;;;;;;;;;;;5.24;100.00;102943.16;5034158;28;19920;-39
2023/11/22 04:02:41;;;;;;;;;;;;;;;5.24;100.00;102935.16;5034029;28;20384;-40
2023/11/22 04:05:07;;;;;;;;;;;;;;;5.23;100.00;102936.94;5034187;28;19913;-39
2023/11/22 04:07:32;;;;;;;;;;;;;;;5.21;100.00;102946.00;5034185;28;20004;-41
2023/11/22 04:09:57;;;;;;;;;;;;;;;5.18;100.00;102938.19;5033698;28;19913;-40
2023/11/22 04:12:23;;;;;;;;;;;;;;;5.18;100.00;102948.84;5033823;28;19913;-39
2023/11/22 04:14:48;;;;;;;;;;;;;;;5.17;100.00;102937.31;5033225;28;19971;-41
2023/11/22 04:17:14;;;;;;;;;;;;;;;5.15;100.00;102941.03;5033694;28;19913;-40
2023/11/22 04:19:39;;;;;;;;;;;;;;;5.12;100.00;102939.41;5033201;28;19967;-40
2023/11/22 04:22:04;;;;;;;;;;;;;;;5.06;100.00;102938.00;5033645;28;19917;-40
2023/11/22 04:24:29;;;;;;;;;;;;;;;5.06;100.00;102945.16;5033303;28;19963;-40
2023/11/22 04:26:54;;;;;;;;;;;;;;;5.05;100.00;102938.97;5033387;28;19949;-39
2023/11/22 04:29:20;;;;;;;;;;;;;;;5.05;100.00;102944.28;5033629;28;19920;-41
2023/11/22 04:31:45;;;;;;;;;;;;;;;5.04;100.00;102942.56;5033935;28;19913;-41
2023/11/22 04:34:10;;;;;;;;;;;;;;;4.99;100.00;102943.78;5032034;28;19924;-40
2023/11/22 04:36:36;;;;;;;;;;;;;;;4.98;100.00;102947.44;5033685;28;19909;-40
2023/11/22 04:39:01;;;;;;;;;;;;;;;4.97;100.00;102954.56;5033814;28;19927;-41
2023/11/22 04:41:26;;;;;;;;;;;;;;;4.98;100.00;102952.75;5032674;28;20315;-40
2023/11/22 04:43:52;;;;;;;;;;;;;;;4.97;100.00;102949.22;5033874;28;19976;-40
2023/11/22 04:46:17;;;;;;;;;;;;;;;4.98;100.00;102948.28;5033581;28;19940;-41
2023/11/22 04:48:44;;;;;;;;;;;;;;;5.00;100.00;102957.06;5045581;28;19916;-41
2023/11/22 04:51:10;;;;;;;;;;;;;;;4.97;100.00;102943.88;5040650;28;20002;-40
2023/11/22 04:53:35;;;;;;;;;;;;;;;4.96;100.00;102936.84;5051835;28;20367;-40
2023/11/22 04:56:05;;;;;;;;;;;;;;;4.97;100.00;102940.34;5053388;28;19912;-40
2023/11/22 04:58:30;;;;;;;;;;;;;;;4.96;100.00;102938.66;5052689;28;20437;-39
2023/11/22 05:00:56;;;;;;;;;;;;;;;4.96;100.00;102955.50;5038347;28;19916;-40
2023/11/22 05:03:21;;;;;;;;;;;;;;;4.99;100.00;102955.31;5037757;28;19931;-40
2023/11/22 05:05:47;;;;;;;;;;;;;;;5.00;100.00;102954.38;5053972;28;20007;-40
2023/11/22 05:08:13;;;;;;;;;;;;;;;5.02;100.00;102952.47;5053153;28;19971;-40
2023/11/22 05:10:38;;;;;;;;;;;;;;;5.02;100.00;102959.63;5051685;28;19946;-40
2023/11/22 05:13:05;;;;;;;;;;;;;;;5.01;100.00;102963.25;5059832;28;19912;-40
2023/11/22 05:15:30;;;;;;;;;;;;;;;5.03;100.00;102966.69;5042187;28;20264;-40
2023/11/22 05:17:55;;;;;;;;;;;;;;;5.02;100.00;102954.28;5051898;28;19921;-40
2023/11/22 05:20:21;;;;;;;;;;;;;;;5.03;100.00;102951.53;5052546;28;19916;-40
2023/11/22 05:22:46;;;;;;;;;;;;;;;4.99;100.00;102952.66;5059287;28;19959;-40
2023/11/22 05:25:11;;;;;;;;;;;;;;;4.99;100.00;102955.31;5058355;28;19919;-39
2023/11/22 05:27:37;;;;;;;;;;;;;;;4.98;100.00;102940.28;5057362;28;19913;-39
2023/11/22 05:30:04;;;;;;;;;;;;;;;4.99;100.00;102922.44;5049527;28;19924;-41
2023/11/22 05:32:31;;;;;;;;;;;;;;;5.01;100.00;102920.53;5038250;28;19924;-39
2023/11/22 05:34:56;;;;;;;;;;;;;;;4.95;100.00;102900.44;5037743;28;19940;-40
2023/11/22 05:37:21;;;;;;;;;;;;;;;4.97;100.00;102909.19;5038132;28;20431;-39
2023/11/22 05:39:46;;;;;;;;;;;;;;;4.97;100.00;102919.84;5042724;28;20329;-41
2023/11/22 05:42:11;;;;;;;;;;;;;;;5.02;100.00;102932.94;5038911;28;19913;-40
2023/11/22 05:44:37;;;;;;;;;;;;;;;5.01;100.00;102934.75;5042729;28;19947;-40
2023/11/22 05:47:02;;;;;;;;;;;;;;;5.02;100.00;102938.25;5056919;28;19920;-41
2023/11/22 05:49:28;;;;;;;;;;;;;;;5.02;100.00;102939.13;5056436;28;19912;-40
2023/11/22 05:51:53;;;;;;;;;;;;;;;5.03;100.00;102935.50;5053388;28;19944;-40
2023/11/22 05:54:18;;;;;;;;;;;;;;;5.03;100.00;102930.19;5038773;28;19924;-40
2023/11/22 05:56:44;;;;;;;;;;;;;;;5.07;100.00;102920.16;5037992;28;20299;-40
2023/11/22 05:59:09;;;;;;;;;;;;;;;5.11;100.00;102932.38;5037319;28;19924;-40
2023/11/22 06:01:34;;;;;;;;;;;;;;;5.00;100.00;102945.50;5038193;28;20336;-40
2023/11/22 06:03:59;;;;;;;;;;;;;;;5.01;100.00;102957.91;5043742;28;20362;-40
2023/11/22 06:06:25;;;;;;;;;;;;;;;4.99;100.00;102959.81;5041099;28;20557;-39
2023/11/22 06:08:50;;;;;;;;;;;;;;;5.02;100.00;102963.13;5044307;28;19926;-40
2023/11/22 06:11:15;;;;;;;;;;;;;;;5.02;100.00;102972.97;5036853;28;20395;-40
2023/11/22 06:13:42;;;;;;;;;;;;;;;5.03;100.00;102980.88;5042020;28;19940;-39
2023/11/22 06:16:07;;;;;;;;;;;;;;;5.04;100.00;102974.59;5044649;28;19960;-40
2023/11/22 06:18:33;;;;;;;;;;;;;;;5.07;100.00;102982.41;5036145;28;19917;-40
2023/11/22 06:20:59;;;;;;;;;;;;;;;5.14;100.00;102992.72;5035574;28;19920;-40
2023/11/22 06:23:24;;;;;;;;;;;;;;;5.17;100.00;102984.53;5034749;28;20294;-37
2023/11/22 06:25:49;;;;;;;;;;;;;;;5.12;100.00;102979.47;5037233;28;20314;-38
2023/11/22 06:28:15;;;;;;;;;;;;;;;5.09;100.00;102976.13;5031498;28;19917;-40
2023/11/22 06:30:40;;;;;;;;;;;;;;;5.05;100.00;102973.66;5037145;28;19967;-40
2023/11/22 06:33:05;;;;;;;;;;;;;;;5.00;100.00;102954.38;5039510;28;19913;-39
2023/11/22 06:35:31;;;;;;;;;;;;;;;5.00;100.00;102953.50;5038900;28;19920;-40
2023/11/22 06:37:56;;;;;;;;;;;;;;;4.99;100.00;102949.97;5050227;28;19920;-40
2023/11/22 06:40:21;;;;;;;;;;;;;;;4.91;100.00;102946.06;5044596;28;19928;-40
2023/11/22 06:42:46;;;;;;;;;;;;;;;4.89;100.00;102938.16;5036031;28;19920;-40
2023/11/22 06:45:15;;;;;;;;;;;;;;;4.87;100.00;102940.09;5047393;28;20066;-40
2023/11/22 06:47:40;;;;;;;;;;;;;;;4.88;100.00;102939.13;5046122;28;19931;-40
2023/11/22 06:50:09;;;;;;;;;;;;;;;4.91;100.00;102936.25;5043710;28;20004;-39
2023/11/22 06:52:40;;;;;;;;;;;;;;;4.94;100.00;102940.53;5025426;28;19913;-41
2023/11/22 06:55:07;;;;;;;;;;;;;;;4.93;100.00;102946.84;5033426;28;19917;-40
2023/11/22 06:57:33;;;;;;;;;;;;;;;4.92;100.00;102950.44;5027730;28;19917;-39
2023/11/22 06:59:58;;;;;;;;;;;;;;;4.85;100.00;102952.66;5043752;28;20298;-40
2023/11/22 07:02:24;;;;;;;;;;;;;;;4.90;100.00;102960.34;5047253;28;19924;-41
2023/11/22 07:04:49;;;;;;;;;;;;;;;4.87;100.00;102958.75;5036319;28;20355;-40
2023/11/22 07:07:14;;;;;;;;;;;;;;;4.85;100.00;102968.66;5034588;28;20054;-41
2023/11/22 07:09:43;;;;;;;;;;;;;;;4.82;100.00;102985.69;5013533;28;20020;-41
2023/11/22 07:12:10;;;;;;;;;;;;;;;4.84;100.00;102989.16;5004348;28;19975;-40
2023/11/22 07:14:35;;;;;;;;;;;;;;;4.86;100.00;102989.03;5024194;28;20011;-40
2023/11/22 07:17:01;;;;;;;;;;;;;;;4.91;100.00;102994.97;5026011;28;19948;-40
2023/11/22 07:19:26;;;;;;;;;;;;;;;4.96;100.00;102982.19;5027986;28;20075;-41
2023/11/22 07:21:51;;;;;;;;;;;;;;;4.92;100.00;102964.66;5028037;28;20354;-40
2023/11/22 07:24:18;;;;;;;;;;;;;;;4.87;100.00;102964.09;5029152;28;20367;-41
2023/11/22 07:26:43;;;;;;;;;;;;;;;4.88;100.00;102968.47;5028003;28;19927;-39
2023/11/22 07:29:09;;;;;;;;;;;;;;;4.83;100.00;102967.88;5029107;28;19917;-40
2023/11/22 07:31:35;;;;;;;;;;;;;;;4.87;100.00;102966.75;5026424;28;19960;-40
2023/11/22 07:34:01;;;;;;;;;;;;;;;4.90;100.00;102977.25;5027729;28;20056;-40
2023/11/22 07:36:28;;;;;;;;;;;;;;;4.81;100.00;102978.63;5028587;28;20023;-40
2023/11/22 07:38:53;;;;;;;;;;;;;;;4.77;100.00;102979.78;5027662;28;19917;-40
2023/11/22 07:41:18;;;;;;;;;;;;;;;4.81;100.00;102999.13;5026124;28;19917;-40
2023/11/22 07:43:44;;;;;;;;;;;;;;;4.85;100.00;103008.69;5026179;28;19917;-40
2023/11/22 07:46:12;;;;;;;;;;;;;;;4.86;100.00;103013.06;5027651;28;19967;-42
2023/11/22 07:48:38;;;;;;;;;;;;;;;4.94;100.00;103015.25;5031031;28;19913;-40
2023/11/22 07:51:03;;;;;;;;;;;;;;;5.02;100.00;103000.50;5033219;28;20275;-40
2023/11/22 07:53:29;;;;;;;;;;;;;;;5.04;100.00;103017.28;5029597;28;19932;-41
2023/11/22 07:55:54;;;;;;;;;;;;;;;4.98;100.00;103020.34;5030483;28;19925;-40
2023/11/22 07:58:20;;;;;;;;;;;;;;;5.05;100.00;103023.47;5032395;28;19920;-41
2023/11/22 08:00:45;;;;;;;;;;;;;;;5.05;100.00;103035.03;5026840;28;19952;-40
2023/11/22 08:03:10;;;;;;;;;;;;;;;5.12;100.00;103034.66;5033151;28;19939;-41
2023/11/22 08:05:39;;;;;;;;;;;;;;;5.18;100.00;103020.94;5029759;28;19913;-41
2023/11/22 08:08:07;;;;;;;;;;;;;;;5.31;100.00;103029.91;5032173;28;19949;-40
2023/11/22 08:10:34;;;;;;;;;;;;;;;5.43;100.00;103031.84;5030845;28;20028;-41
2023/11/22 08:12:59;;;;;;;;;;;;;;;5.45;100.00;103021.91;5031360;28;20902;-40
2023/11/22 08:15:25;;;;;;;;;;;;;;;5.57;100.00;103024.78;5032253;28;19925;-40
2023/11/22 08:17:50;;;;;;;;;;;;;;;5.58;100.00;103026.47;5028805;28;19932;-40
2023/11/22 08:20:17;;;;;;;;;;;;;;;5.55;100.00;103026.69;5031882;28;19932;-40
2023/11/22 08:22:45;;;;;;;;;;;;;;;5.59;100.00;103030.88;5030253;28;19944;-41
2023/11/22 08:25:12;;;;;;;;;;;;;;;5.70;100.00;103031.06;5026869;28;20347;-40
2023/11/22 08:27:37;;;;;;;;;;;;;;;5.87;100.00;103038.00;5029463;28;19956;-41
2023/11/22 08:30:04;;;;;;;;;;;;;;;6.20;100.00;103044.88;5031689;28;19960;-40
2023/11/22 08:32:31;;;;;;;;;;;;;;;6.44;100.00;103040.59;5029742;28;19947;-41
2023/11/22 08:34:56;;;;;;;;;;;;;;;6.52;100.00;103040.94;5027838;28;20035;-40
2023/11/22 08:37:21;;;;;;;;;;;;;;;6.89;100.00;103027.75;5025345;28;20016;-40
2023/11/22 08:39:46;;;;;;;;;;;;;;;7.04;100.00;103023.19;5025642;28;20334;-41
2023/11/22 08:42:13;;;;;;;;;;;;;;;7.14;100.00;103016.25;5025438;28;20330;-39
2023/11/22 08:44:38;;;;;;;;;;;;;;;6.90;100.00;102992.03;5022492;28;20095;-40
2023/11/22 08:47:03;;;;;;;;;;;;;;;6.87;100.00;102999.38;5025027;28;20439;-41
2023/11/22 08:49:29;;;;;;;;;;;;;;;6.68;100.00;102989.06;5028938;28;20410;-40
2023/11/22 08:51:54;;;;;;;;;;;;;;;6.69;100.00;102997.00;5027089;28;19936;-40
2023/11/22 08:54:19;;;;;;;;;;;;;;;6.83;100.00;102996.06;5020419;28;19924;-39
2023/11/22 08:56:46;;;;;;;;;;;;;;;7.14;100.00;103000.19;5026750;28;19971;-41
2023/11/22 08:59:12;;;;;;;;;;;;;;;7.11;100.00;102995.03;5027972;28;19917;-40
2023/11/22 09:01:37;;;;;;;;;;;;;;;6.92;100.00;102994.56;5029503;28;19970;-40
2023/11/22 09:04:02;;;;;;;;;;;;;;;6.81;100.00;102987.28;5029954;28;19917;-41
2023/11/22 09:06:29;;;;;;;;;;;;;;;6.87;100.00;102996.72;5027556;28;19916;-40
2023/11/22 09:08:54;;;;;;;;;;;;;;;6.52;100.00;102991.94;5029405;28;19932;-41
2023/11/22 09:11:22;;;;;;;;;;;;;;;6.28;100.00;102997.94;5027812;28;19917;-40
2023/11/22 09:13:47;;;;;;;;;;;;;;;6.29;100.00;103002.34;5027439;28;20315;-41
2023/11/22 09:16:13;;;;;;;;;;;;;;;6.43;100.00;103000.59;5027911;28;19928;-42
2023/11/22 09:18:38;;;;;;;;;;;;;;;6.52;100.00;103005.31;5026938;28;19971;-40
2023/11/22 09:21:04;;;;;;;;;;;;;;;6.59;100.00;103003.94;5031546;28;20271;-41
2023/11/22 09:23:30;;;;;;;;;;;;;;;6.41;100.00;103002.50;5028851;28;19972;-41
2023/11/22 09:25:55;;;;;;;;;;;;;;;6.31;100.00;103005.75;5029816;28;19920;-39
2023/11/22 09:28:21;;;;;;;;;;;;;;;6.22;100.00;103017.06;5027981;28;20441;-40
2023/11/22 09:30:48;;;;;;;;;;;;;;;6.21;100.00;103015.34;5024317;28;20334;-41
2023/11/22 09:33:14;;;;;;;;;;;;;;;6.24;100.00;103019.63;5026605;28;20287;-40
2023/11/22 09:35:40;;;;;;;;;;;;;;;6.17;100.00;103000.47;5023429;28;20004;-40
2023/11/22 09:38:09;;;;;;;;;;;;;;;6.11;100.00;103000.88;5027624;28;19937;-41
2023/11/22 09:40:36;;;;;;;;;;;;;;;6.07;100.00;103004.69;5026848;28;19917;-40
2023/11/22 09:43:02;;;;;;;;;;;;;;;6.06;100.00;103001.16;5032538;28;19972;-40
2023/11/22 09:45:29;;;;;;;;;;;;;;;6.10;100.00;102997.31;5033658;28;20426;-40
2023/11/22 09:47:54;;;;;;;;;;;;;;;6.09;100.00;103006.31;5031794;28;19925;-41
2023/11/22 09:50:21;;;;;;;;;;;;;;;6.35;100.00;103009.09;5019095;28;19917;-41
2023/11/22 09:52:49;;;;;;;;;;;;;;;6.55;100.00;103003.28;5036435;28;19924;-41
2023/11/22 09:55:14;;;;;;;;;;;;;;;6.85;100.00;103006.69;5026417;28;19956;-39
2023/11/22 09:57:39;;;;;;;;;;;;;;;6.91;100.00;102998.22;5030962;28;20383;-41
2023/11/22 10:00:05;;;;;;;;;;;;;;;6.87;100.00;102991.34;5028679;28;19921;-41
2023/11/22 10:02:31;;;;;;;;;;;;;;;7.34;100.00;102995.25;5025344;28;19921;-40
2023/11/22 10:04:56;;;;;;;;;;;;;;;7.26;100.00;102988.59;5028898;28;20002;-40
2023/11/22 10:07:22;;;;;;;;;;;;;;;7.38;100.00;102978.00;5013359;28;20366;-40
2023/11/22 10:09:48;;;;;;;;;;;;;;;7.80;100.00;102967.84;5029220;28;19921;-40
2023/11/22 10:12:14;;;;;;;;;;;;;;;7.97;100.00;102959.41;5026558;28;20371;-41
2023/11/22 10:14:40;;;;;;;;;;;;;;;8.01;100.00;102952.84;5008276;28;20283;-41
2023/11/22 10:17:05;;;;;;;;;;;;;;;8.02;100.00;102940.31;5029713;28;19920;-41
2023/11/22 10:19:30;;;;;;;;;;;;;;;8.45;100.00;102937.09;5029664;28;19921;-39
2023/11/22 10:22:02;;;;;;;;;;;;;;;8.24;100.00;102939.53;5029525;28;19940;-39
2023/11/22 10:24:30;;;;;;;;;;;;;;;7.74;100.00;102937.00;5029787;28;19929;-41
2023/11/22 10:26:55;;;;;;;;;;;;;;;7.38;100.00;102927.09;5030740;28;19925;-39
2023/11/22 10:29:20;;;;;;;;;;;;;;;7.35;100.00;102919.28;5029945;28;19917;-41
2023/11/22 10:31:46;;;;;;;;;;;;;;;7.27;100.00;102914.47;5031651;28;20320;-40
2023/11/22 10:34:11;;;;;;;;;;;;;;;7.37;100.00;102926.25;5027180;28;20431;-39
2023/11/22 10:36:36;;;;;;;;;;;;;;;7.34;100.00;102931.81;5032644;28;20063;-41
2023/11/22 10:39:02;;;;;;;;;;;;;;;7.28;100.00;102926.03;5034064;28;19916;-40
2023/11/22 10:41:27;;;;;;;;;;;;;;;7.26;100.00;102928.81;5033095;28;19925;-40
2023/11/22 10:43:55;;;;;;;;;;;;;;;7.36;100.00;102940.59;5031796;28;19936;-40
2023/11/22 10:46:21;;;;;;;;;;;;;;;7.51;100.00;102930.59;5024398;28;19928;-41
2023/11/22 10:48:46;;;;;;;;;;;;;;;7.39;100.00;102931.47;5017545;28;19917;-40
2023/11/22 10:51:12;;;;;;;;;;;;;;;7.36;100.00;102929.03;5028425;28;19913;-41
2023/11/22 10:53:38;;;;;;;;;;;;;;;7.28;100.00;102921.53;5020557;28;19925;-41
2023/11/22 10:56:17;;;;;;;;;;;;;;;7.32;100.00;102915.00;5023192;28;19917;-41
2023/11/22 10:58:55;;;;;;;;;;;;;;;7.36;100.00;102912.94;5008022;28;19917;-40
2023/11/22 11:01:21;;;;;;;;;;;;;;;7.54;100.00;102900.91;5025622;28;19974;-41
2023/11/22 11:03:53;;;;;;;;;;;;;;;7.85;100.00;102893.31;5028442;28;20008;-40
2023/11/22 11:06:19;;;;;;;;;;;;;;;7.79;100.00;102891.91;5024732;28;19917;-40
2023/11/22 11:08:44;;;;;;;;;;;;;;;7.44;100.00;102899.84;5029819;28;19917;-40
2023/11/22 11:11:09;;;;;;;;;;;;;;;7.43;100.00;102904.38;5029128;28;19970;-41
2023/11/22 11:13:35;;;;;;;;;;;;;;;7.41;100.00;102910.81;5017100;28;19988;-40
2023/11/22 11:16:00;;;;;;;;;;;;;;;7.41;100.00;102897.41;5029184;28;19924;-41
2023/11/22 11:18:26;;;;;;;;;;;;;;;7.40;100.00;102893.03;5026114;28;20060;-40
2023/11/22 11:20:53;;;;;;;;;;;;;;;7.45;100.00;102888.16;5025951;28;19920;-40
2023/11/22 11:23:22;;;;;;;;;;;;;;;7.51;100.00;102897.59;5027181;28;20324;-40
2023/11/22 11:25:48;;;;;;;;;;;;;;;7.42;100.00;102893.75;5027750;28;20441;-40
2023/11/22 11:28:14;;;;;;;;;;;;;;;7.57;100.00;102899.81;5029265;28;19924;-41
2023/11/22 11:30:49;;;;;;;;;;;;;;;7.42;100.00;102893.75;5018018;28;20307;-40
2023/11/22 11:33:18;;;;;;;;;;;;;;;7.60;100.00;102894.25;5025914;28;20029;-39
2023/11/22 11:35:48;;;;;;;;;;;;;;;7.60;100.00;102895.09;5028704;28;19916;-39
2023/11/22 11:38:13;;;;;;;;;;;;;;;7.62;100.00;102889.63;5025829;28;20390;-38
2023/11/22 11:40:40;;;;;;;;;;;;;;;7.87;100.00;102885.97;5025510;28;20008;-41
2023/11/22 11:43:06;;;;;;;;;;;;;;;7.98;100.00;102883.38;5028771;28;19960;-40
2023/11/22 11:45:34;;;;;;;;;;;;;;;7.87;100.00;102872.56;5028444;28;19925;-41
2023/11/22 11:48:00;;;;;;;;;;;;;;;7.93;100.00;102866.78;5030921;28;19925;-40
2023/11/22 11:50:26;;;;;;;;;;;;;;;7.97;100.00;102853.97;5030004;28;20975;-40
2023/11/22 11:52:51;;;;;;;;;;;;;;;7.92;100.00;102851.63;5032028;28;20113;-41
2023/11/22 11:55:16;;;;;;;;;;;;;;;7.98;100.00;102840.47;5029624;28;20367;-41
2023/11/22 11:57:42;;;;;;;;;;;;;;;8.05;100.00;102843.53;5027113;28;19940;-41
2023/11/22 12:00:09;;;;;;;;;;;;;;;7.80;100.00;102837.34;5028766;28;20343;-40
2023/11/22 12:02:34;;;;;;;;;;;;;;;7.72;100.00;102838.91;5026058;28;19917;-40
2023/11/22 12:04:59;;;;;;;;;;;;;;;7.64;100.00;102826.06;5028358;28;19932;-40
2023/11/22 12:07:24;;;;;;;;;;;;;;;7.39;100.00;102817.13;5024506;28;19932;-40
2023/11/22 12:09:51;;;;;;;;;;;;;;;7.39;100.00;102813.59;5025497;28;20614;-40
2023/11/22 12:12:16;;;;;;;;;;;;;;;7.52;100.00;102798.34;5022738;28;19983;-41
2023/11/22 12:14:41;;;;;;;;;;;;;;;7.66;100.00;102813.38;5026445;28;20356;-40
2023/11/22 12:17:07;;;;;;;;;;;;;;;7.80;100.00;102807.00;5027102;28;20417;-40
2023/11/22 12:19:34;;;;;;;;;;;;;;;7.68;100.00;102806.94;5027679;28;19923;-42
2023/11/22 12:21:59;;;;;;;;;;;;;;;7.74;100.00;102805.66;5027863;28;20010;-40
2023/11/22 12:24:24;;;;;;;;;;;;;;;7.76;100.00;102795.66;5027938;28;20439;-40
2023/11/22 12:26:50;;;;;;;;;;;;;;;7.80;100.00;102794.47;5016186;28;19936;-40
2023/11/22 12:29:15;;;;;;;;;;;;;;;7.67;100.00;102791.84;5023350;28;20012;-41